sensor_id;sensor_type;location;lat;lon;timestamp;temperature;humidity
37310;DHT22;23195;47.744;7.358;2023-03-23T00:01:56;14.10;96.50
37310;DHT22;23195;47.744;7.358;2023-03-23T00:04:22;14.20;97.30
37310;DHT22;23195;47.744;7.358;2023-03-23T00:06:50;14.20;96.90
37310;DHT22;23195;47.744;7.358;2023-03-23T00:09:15;14.20;96.80
37310;DHT22;23195;47.744;7.358;2023-03-23T00:11:43;14.20;96.80
37310;DHT22;23195;47.744;7.358;2023-03-23T00:14:09;14.10;96.90
37310;DHT22;23195;47.744;7.358;2023-03-23T00:16:39;14.20;97.30
37310;DHT22;23195;47.744;7.358;2023-03-23T00:19:11;14.20;96.70
37310;DHT22;23195;47.744;7.358;2023-03-23T00:21:41;14.40;96.60
37310;DHT22;23195;47.744;7.358;2023-03-23T00:24:16;14.40;96.30
37310;DHT22;23195;47.744;7.358;2023-03-23T00:26:47;14.40;96.50
37310;DHT22;23195;47.744;7.358;2023-03-23T00:29:17;14.40;96.40
37310;DHT22;23195;47.744;7.358;2023-03-23T00:31:46;14.50;96.50
37310;DHT22;23195;47.744;7.358;2023-03-23T00:34:18;14.50;96.40
37310;DHT22;23195;47.744;7.358;2023-03-23T00:36:47;14.50;96.40
37310;DHT22;23195;47.744;7.358;2023-03-23T00:39:13;14.50;96.40
37310;DHT22;23195;47.744;7.358;2023-03-23T00:41:42;14.50;96.10
37310;DHT22;23195;47.744;7.358;2023-03-23T00:44:08;14.50;96.00
37310;DHT22;23195;47.744;7.358;2023-03-23T00:46:34;14.50;96.00
37310;DHT22;23195;47.744;7.358;2023-03-23T00:49:14;14.50;96.50
37310;DHT22;23195;47.744;7.358;2023-03-23T00:51:41;14.50;96.20
37310;DHT22;23195;47.744;7.358;2023-03-23T00:54:08;14.50;96.40
37310;DHT22;23195;47.744;7.358;2023-03-23T00:56:34;14.50;96.30
37310;DHT22;23195;47.744;7.358;2023-03-23T00:59:01;14.40;96.20
37310;DHT22;23195;47.744;7.358;2023-03-23T01:01:27;14.40;96.10
37310;DHT22;23195;47.744;7.358;2023-03-23T01:03:52;14.70;95.90
37310;DHT22;23195;47.744;7.358;2023-03-23T01:06:27;14.40;95.80
37310;DHT22;23195;47.744;7.358;2023-03-23T01:08:53;14.40;95.70
37310;DHT22;23195;47.744;7.358;2023-03-23T01:11:19;14.50;95.60
37310;DHT22;23195;47.744;7.358;2023-03-23T01:13:46;14.50;95.60
37310;DHT22;23195;47.744;7.358;2023-03-23T01:16:12;14.50;95.30
37310;DHT22;23195;47.744;7.358;2023-03-23T01:18:39;14.50;95.10
37310;DHT22;23195;47.744;7.358;2023-03-23T01:21:10;14.50;94.90
37310;DHT22;23195;47.744;7.358;2023-03-23T01:23:36;14.50;94.80
37310;DHT22;23195;47.744;7.358;2023-03-23T01:26:07;14.50;95.10
37310;DHT22;23195;47.744;7.358;2023-03-23T01:28:35;14.50;94.90
37310;DHT22;23195;47.744;7.358;2023-03-23T01:31:08;14.40;94.90
37310;DHT22;23195;47.744;7.358;2023-03-23T01:33:37;14.50;94.90
37310;DHT22;23195;47.744;7.358;2023-03-23T01:36:06;14.40;94.90
37310;DHT22;23195;47.744;7.358;2023-03-23T01:38:33;14.40;94.90
37310;DHT22;23195;47.744;7.358;2023-03-23T01:40:59;14.30;94.60
37310;DHT22;23195;47.744;7.358;2023-03-23T01:43:26;14.40;94.70
37310;DHT22;23195;47.744;7.358;2023-03-23T01:45:51;14.40;94.60
37310;DHT22;23195;47.744;7.358;2023-03-23T01:48:37;14.40;94.60
37310;DHT22;23195;47.744;7.358;2023-03-23T01:51:09;14.40;94.50
37310;DHT22;23195;47.744;7.358;2023-03-23T01:53:46;14.30;94.50
37310;DHT22;23195;47.744;7.358;2023-03-23T01:56:14;14.30;94.50
37310;DHT22;23195;47.744;7.358;2023-03-23T01:58:41;14.30;94.40
37310;DHT22;23195;47.744;7.358;2023-03-23T02:01:10;14.30;94.40
37310;DHT22;23195;47.744;7.358;2023-03-23T02:03:41;14.30;94.40
37310;DHT22;23195;47.744;7.358;2023-03-23T02:06:08;14.30;94.20
37310;DHT22;23195;47.744;7.358;2023-03-23T02:08:34;14.30;94.20
37310;DHT22;23195;47.744;7.358;2023-03-23T02:11:01;14.30;94.20
37310;DHT22;23195;47.744;7.358;2023-03-23T02:13:28;14.30;94.50
37310;DHT22;23195;47.744;7.358;2023-03-23T02:27:00;14.00;96.10
37310;DHT22;23195;47.744;7.358;2023-03-23T02:29:44;14.00;95.90
37310;DHT22;23195;47.744;7.358;2023-03-23T02:32:22;14.00;95.60
37310;DHT22;23195;47.744;7.358;2023-03-23T02:35:03;14.00;95.90
37310;DHT22;23195;47.744;7.358;2023-03-23T02:37:53;14.00;96.20
37310;DHT22;23195;47.744;7.358;2023-03-23T02:40:27;14.00;96.90
37310;DHT22;23195;47.744;7.358;2023-03-23T02:42:57;14.00;97.20
37310;DHT22;23195;47.744;7.358;2023-03-23T02:45:27;13.90;97.50
37310;DHT22;23195;47.744;7.358;2023-03-23T02:47:55;13.80;97.80
37310;DHT22;23195;47.744;7.358;2023-03-23T02:50:24;13.70;98.20
37310;DHT22;23195;47.744;7.358;2023-03-23T02:52:53;13.80;98.70
37310;DHT22;23195;47.744;7.358;2023-03-23T02:55:21;13.70;99.00
37310;DHT22;23195;47.744;7.358;2023-03-23T02:57:52;13.60;99.30
37310;DHT22;23195;47.744;7.358;2023-03-23T03:00:19;13.50;99.50
37310;DHT22;23195;47.744;7.358;2023-03-23T03:02:54;13.40;99.70
37310;DHT22;23195;47.744;7.358;2023-03-23T03:08:01;13.30;99.90
37310;DHT22;23195;47.744;7.358;2023-03-23T03:10:59;13.20;99.90
37310;DHT22;23195;47.744;7.358;2023-03-23T03:14:06;13.20;99.90
37310;DHT22;23195;47.744;7.358;2023-03-23T03:16:40;13.10;99.90
37310;DHT22;23195;47.744;7.358;2023-03-23T03:19:38;13.00;99.90
37310;DHT22;23195;47.744;7.358;2023-03-23T03:22:06;13.00;99.90
37310;DHT22;23195;47.744;7.358;2023-03-23T03:24:33;13.10;99.90
37310;DHT22;23195;47.744;7.358;2023-03-23T03:27:03;13.10;99.90
37310;DHT22;23195;47.744;7.358;2023-03-23T03:29:35;13.00;99.90
37310;DHT22;23195;47.744;7.358;2023-03-23T03:32:06;13.00;99.90
37310;DHT22;23195;47.744;7.358;2023-03-23T03:34:33;13.00;99.90
37310;DHT22;23195;47.744;7.358;2023-03-23T03:37:00;13.10;99.90
37310;DHT22;23195;47.744;7.358;2023-03-23T03:39:27;12.90;99.90
37310;DHT22;23195;47.744;7.358;2023-03-23T03:41:53;13.00;99.90
37310;DHT22;23195;47.744;7.358;2023-03-23T03:44:19;12.90;99.90
37310;DHT22;23195;47.744;7.358;2023-03-23T03:46:45;12.90;99.90
37310;DHT22;23195;47.744;7.358;2023-03-23T03:49:11;12.90;99.90
37310;DHT22;23195;47.744;7.358;2023-03-23T03:51:38;12.80;99.90
37310;DHT22;23195;47.744;7.358;2023-03-23T03:54:04;12.70;99.90
37310;DHT22;23195;47.744;7.358;2023-03-23T03:56:30;12.70;99.90
37310;DHT22;23195;47.744;7.358;2023-03-23T03:59:00;12.70;99.90
37310;DHT22;23195;47.744;7.358;2023-03-23T04:01:26;12.70;99.90
37310;DHT22;23195;47.744;7.358;2023-03-23T04:03:52;12.70;99.90
37310;DHT22;23195;47.744;7.358;2023-03-23T04:06:19;12.70;99.90
37310;DHT22;23195;47.744;7.358;2023-03-23T04:08:45;12.70;99.90
37310;DHT22;23195;47.744;7.358;2023-03-23T04:11:12;12.70;99.90
37310;DHT22;23195;47.744;7.358;2023-03-23T04:13:39;12.70;99.90
37310;DHT22;23195;47.744;7.358;2023-03-23T04:16:08;12.70;99.90
37310;DHT22;23195;47.744;7.358;2023-03-23T04:18:35;12.60;99.90
37310;DHT22;23195;47.744;7.358;2023-03-23T04:21:02;12.60;99.90
37310;DHT22;23195;47.744;7.358;2023-03-23T04:23:29;12.60;99.90
37310;DHT22;23195;47.744;7.358;2023-03-23T04:25:56;12.60;99.90
37310;DHT22;23195;47.744;7.358;2023-03-23T04:28:26;12.60;99.90
37310;DHT22;23195;47.744;7.358;2023-03-23T04:30:53;12.70;99.90
37310;DHT22;23195;47.744;7.358;2023-03-23T04:33:24;12.70;99.90
37310;DHT22;23195;47.744;7.358;2023-03-23T04:35:52;12.90;99.90
37310;DHT22;23195;47.744;7.358;2023-03-23T04:38:19;13.10;99.90
37310;DHT22;23195;47.744;7.358;2023-03-23T04:40:46;13.20;99.90
37310;DHT22;23195;47.744;7.358;2023-03-23T04:43:13;13.30;99.90
37310;DHT22;23195;47.744;7.358;2023-03-23T04:45:40;13.70;99.70
37310;DHT22;23195;47.744;7.358;2023-03-23T04:48:14;13.90;99.50
37310;DHT22;23195;47.744;7.358;2023-03-23T04:50:40;13.90;99.30
37310;DHT22;23195;47.744;7.358;2023-03-23T04:53:06;14.00;99.20
37310;DHT22;23195;47.744;7.358;2023-03-23T04:55:34;14.10;99.10
37310;DHT22;23195;47.744;7.358;2023-03-23T04:58:04;14.10;99.20
37310;DHT22;23195;47.744;7.358;2023-03-23T05:00:32;14.10;99.40
37310;DHT22;23195;47.744;7.358;2023-03-23T05:02:58;14.10;99.40
37310;DHT22;23195;47.744;7.358;2023-03-23T05:05:24;14.00;99.50
37310;DHT22;23195;47.744;7.358;2023-03-23T05:07:51;14.00;99.60
37310;DHT22;23195;47.744;7.358;2023-03-23T05:10:17;13.90;99.70
37310;DHT22;23195;47.744;7.358;2023-03-23T05:12:43;14.00;99.90
37310;DHT22;23195;47.744;7.358;2023-03-23T05:15:11;13.90;99.90
37310;DHT22;23195;47.744;7.358;2023-03-23T05:17:37;13.90;99.90
37310;DHT22;23195;47.744;7.358;2023-03-23T05:20:04;13.90;99.90
37310;DHT22;23195;47.744;7.358;2023-03-23T05:22:36;13.90;99.90
37310;DHT22;23195;47.744;7.358;2023-03-23T05:25:04;14.00;99.90
37310;DHT22;23195;47.744;7.358;2023-03-23T05:27:31;13.90;99.90
37310;DHT22;23195;47.744;7.358;2023-03-23T05:29:58;13.90;99.90
37310;DHT22;23195;47.744;7.358;2023-03-23T05:32:25;13.90;99.90
37310;DHT22;23195;47.744;7.358;2023-03-23T05:34:58;13.90;99.90
37310;DHT22;23195;47.744;7.358;2023-03-23T05:37:26;13.80;99.90
37310;DHT22;23195;47.744;7.358;2023-03-23T05:39:52;13.80;99.90
37310;DHT22;23195;47.744;7.358;2023-03-23T05:42:21;13.80;99.90
37310;DHT22;23195;47.744;7.358;2023-03-23T05:44:47;13.80;99.90
37310;DHT22;23195;47.744;7.358;2023-03-23T05:47:13;13.80;99.90
37310;DHT22;23195;47.744;7.358;2023-03-23T05:49:39;13.80;99.90
37310;DHT22;23195;47.744;7.358;2023-03-23T05:52:05;13.80;99.90
37310;DHT22;23195;47.744;7.358;2023-03-23T05:54:31;13.80;99.90
37310;DHT22;23195;47.744;7.358;2023-03-23T05:56:57;13.80;99.90
37310;DHT22;23195;47.744;7.358;2023-03-23T05:59:23;13.90;99.90
37310;DHT22;23195;47.744;7.358;2023-03-23T06:01:48;13.90;99.90
37310;DHT22;23195;47.744;7.358;2023-03-23T06:04:16;13.80;99.90
37310;DHT22;23195;47.744;7.358;2023-03-23T06:06:42;13.90;99.90
37310;DHT22;23195;47.744;7.358;2023-03-23T06:09:09;14.00;99.90
37310;DHT22;23195;47.744;7.358;2023-03-23T06:11:38;14.00;99.90
37310;DHT22;23195;47.744;7.358;2023-03-23T06:14:04;14.00;99.90
37310;DHT22;23195;47.744;7.358;2023-03-23T06:16:29;14.00;99.90
37310;DHT22;23195;47.744;7.358;2023-03-23T06:18:55;14.10;99.90
37310;DHT22;23195;47.744;7.358;2023-03-23T06:21:22;14.20;99.90
37310;DHT22;23195;47.744;7.358;2023-03-23T06:23:48;14.20;99.90
37310;DHT22;23195;47.744;7.358;2023-03-23T06:26:15;14.20;99.90
37310;DHT22;23195;47.744;7.358;2023-03-23T06:28:43;14.20;99.90
37310;DHT22;23195;47.744;7.358;2023-03-23T06:31:09;14.30;99.90
37310;DHT22;23195;47.744;7.358;2023-03-23T06:33:36;14.30;99.90
37310;DHT22;23195;47.744;7.358;2023-03-23T06:36:03;14.30;99.90
37310;DHT22;23195;47.744;7.358;2023-03-23T06:38:30;14.40;99.90
37310;DHT22;23195;47.744;7.358;2023-03-23T06:40:57;14.50;99.90
37310;DHT22;23195;47.744;7.358;2023-03-23T06:43:23;14.50;99.90
37310;DHT22;23195;47.744;7.358;2023-03-23T06:45:50;14.50;99.90
37310;DHT22;23195;47.744;7.358;2023-03-23T06:48:17;14.50;99.90
37310;DHT22;23195;47.744;7.358;2023-03-23T06:50:53;14.60;99.90
37310;DHT22;23195;47.744;7.358;2023-03-23T07:02:33;14.50;99.90
37310;DHT22;23195;47.744;7.358;2023-03-23T07:05:25;14.60;99.90
37310;DHT22;23195;47.744;7.358;2023-03-23T07:11:23;14.70;99.90
37310;DHT22;23195;47.744;7.358;2023-03-23T07:14:12;14.90;99.90
37310;DHT22;23195;47.744;7.358;2023-03-23T07:16:51;15.00;99.90
37310;DHT22;23195;47.744;7.358;2023-03-23T07:19:27;15.10;99.90
37310;DHT22;23195;47.744;7.358;2023-03-23T07:21:53;15.20;99.90
37310;DHT22;23195;47.744;7.358;2023-03-23T07:24:19;15.30;99.90
37310;DHT22;23195;47.744;7.358;2023-03-23T07:26:45;15.30;99.90
37310;DHT22;23195;47.744;7.358;2023-03-23T07:29:10;15.20;99.90
37310;DHT22;23195;47.744;7.358;2023-03-23T07:31:36;15.10;99.90
37310;DHT22;23195;47.744;7.358;2023-03-23T07:34:02;15.20;99.90
37310;DHT22;23195;47.744;7.358;2023-03-23T07:36:29;15.10;99.90
37310;DHT22;23195;47.744;7.358;2023-03-23T07:38:54;15.10;99.90
37310;DHT22;23195;47.744;7.358;2023-03-23T07:41:22;15.00;99.90
37310;DHT22;23195;47.744;7.358;2023-03-23T07:43:48;14.90;99.90
37310;DHT22;23195;47.744;7.358;2023-03-23T07:46:14;14.90;99.90
37310;DHT22;23195;47.744;7.358;2023-03-23T07:48:40;14.80;99.90
37310;DHT22;23195;47.744;7.358;2023-03-23T07:51:06;14.80;99.90
37310;DHT22;23195;47.744;7.358;2023-03-23T07:53:33;14.90;99.90
37310;DHT22;23195;47.744;7.358;2023-03-23T07:55:59;14.80;99.90
37310;DHT22;23195;47.744;7.358;2023-03-23T07:58:24;14.90;99.90
37310;DHT22;23195;47.744;7.358;2023-03-23T08:00:51;14.90;99.90
37310;DHT22;23195;47.744;7.358;2023-03-23T08:03:18;14.90;99.90
37310;DHT22;23195;47.744;7.358;2023-03-23T08:05:44;15.00;99.90
37310;DHT22;23195;47.744;7.358;2023-03-23T08:08:10;15.20;99.90
37310;DHT22;23195;47.744;7.358;2023-03-23T08:10:36;15.20;99.90
37310;DHT22;23195;47.744;7.358;2023-03-23T08:13:03;15.40;99.90
37310;DHT22;23195;47.744;7.358;2023-03-23T08:15:29;15.50;99.90
37310;DHT22;23195;47.744;7.358;2023-03-23T08:17:55;15.20;99.90
37310;DHT22;23195;47.744;7.358;2023-03-23T08:20:21;15.50;99.90
37310;DHT22;23195;47.744;7.358;2023-03-23T08:22:53;15.50;99.90
37310;DHT22;23195;47.744;7.358;2023-03-23T08:25:21;15.40;99.90
37310;DHT22;23195;47.744;7.358;2023-03-23T08:27:47;15.50;99.90
37310;DHT22;23195;47.744;7.358;2023-03-23T08:30:18;15.50;99.90
37310;DHT22;23195;47.744;7.358;2023-03-23T08:32:45;15.60;99.90
37310;DHT22;23195;47.744;7.358;2023-03-23T08:35:15;15.60;99.90
37310;DHT22;23195;47.744;7.358;2023-03-23T08:37:41;15.60;99.90
37310;DHT22;23195;47.744;7.358;2023-03-23T08:40:09;15.80;99.90
37310;DHT22;23195;47.744;7.358;2023-03-23T08:42:39;15.80;99.90
37310;DHT22;23195;47.744;7.358;2023-03-23T08:45:07;15.90;99.90
37310;DHT22;23195;47.744;7.358;2023-03-23T08:47:37;16.00;99.90
37310;DHT22;23195;47.744;7.358;2023-03-23T08:50:09;16.30;99.90
37310;DHT22;23195;47.744;7.358;2023-03-23T08:52:36;16.60;99.90
37310;DHT22;23195;47.744;7.358;2023-03-23T08:55:03;16.50;99.90
37310;DHT22;23195;47.744;7.358;2023-03-23T08:57:30;17.00;99.90
37310;DHT22;23195;47.744;7.358;2023-03-23T08:59:56;17.10;99.90
37310;DHT22;23195;47.744;7.358;2023-03-23T09:02:27;17.00;99.90
37310;DHT22;23195;47.744;7.358;2023-03-23T09:04:56;16.90;99.90
37310;DHT22;23195;47.744;7.358;2023-03-23T09:07:22;16.80;99.90
37310;DHT22;23195;47.744;7.358;2023-03-23T09:09:49;16.90;99.90
37310;DHT22;23195;47.744;7.358;2023-03-23T09:12:15;16.70;99.90
37310;DHT22;23195;47.744;7.358;2023-03-23T09:14:41;16.70;99.90
37310;DHT22;23195;47.744;7.358;2023-03-23T09:17:09;16.60;99.90
37310;DHT22;23195;47.744;7.358;2023-03-23T09:19:35;16.50;99.90
37310;DHT22;23195;47.744;7.358;2023-03-23T09:22:01;16.60;99.90
37310;DHT22;23195;47.744;7.358;2023-03-23T09:24:29;16.60;99.90
37310;DHT22;23195;47.744;7.358;2023-03-23T09:26:55;16.70;99.90
37310;DHT22;23195;47.744;7.358;2023-03-23T09:29:21;16.90;99.90
37310;DHT22;23195;47.744;7.358;2023-03-23T09:31:47;17.20;99.90
37310;DHT22;23195;47.744;7.358;2023-03-23T09:34:13;17.40;99.90
37310;DHT22;23195;47.744;7.358;2023-03-23T09:36:41;17.40;99.90
37310;DHT22;23195;47.744;7.358;2023-03-23T09:39:07;17.50;99.90
37310;DHT22;23195;47.744;7.358;2023-03-23T09:50:21;17.80;98.80
37310;DHT22;23195;47.744;7.358;2023-03-23T09:55:21;18.00;98.50
37310;DHT22;23195;47.744;7.358;2023-03-23T10:00:42;18.10;98.60
37310;DHT22;23195;47.744;7.358;2023-03-23T10:03:16;18.20;98.30
37310;DHT22;23195;47.744;7.358;2023-03-23T10:05:47;18.40;98.00
37310;DHT22;23195;47.744;7.358;2023-03-23T10:08:17;18.40;98.10
37310;DHT22;23195;47.744;7.358;2023-03-23T10:11:18;18.50;97.80
37310;DHT22;23195;47.744;7.358;2023-03-23T10:14:14;18.50;97.70
37310;DHT22;23195;47.744;7.358;2023-03-23T10:17:15;18.80;96.80
37310;DHT22;23195;47.744;7.358;2023-03-23T10:19:54;19.00;95.90
37310;DHT22;23195;47.744;7.358;2023-03-23T10:22:33;19.10;95.90
37310;DHT22;23195;47.744;7.358;2023-03-23T10:25:29;19.40;95.80
37310;DHT22;23195;47.744;7.358;2023-03-23T10:28:15;19.60;95.00
37310;DHT22;23195;47.744;7.358;2023-03-23T10:30:57;19.60;94.80
37310;DHT22;23195;47.744;7.358;2023-03-23T10:33:42;19.60;94.80
37310;DHT22;23195;47.744;7.358;2023-03-23T10:36:19;19.70;94.70
37310;DHT22;23195;47.744;7.358;2023-03-23T10:38:55;19.70;94.30
37310;DHT22;23195;47.744;7.358;2023-03-23T10:41:22;19.60;94.60
37310;DHT22;23195;47.744;7.358;2023-03-23T10:43:48;19.70;94.30
37310;DHT22;23195;47.744;7.358;2023-03-23T10:46:45;19.70;94.00
37310;DHT22;23195;47.744;7.358;2023-03-23T10:49:21;19.70;93.60
37310;DHT22;23195;47.744;7.358;2023-03-23T10:51:57;19.80;93.70
37310;DHT22;23195;47.744;7.358;2023-03-23T10:54:32;19.80;93.90
37310;DHT22;23195;47.744;7.358;2023-03-23T10:57:00;20.00;93.60
37310;DHT22;23195;47.744;7.358;2023-03-23T10:59:28;20.20;93.30
37310;DHT22;23195;47.744;7.358;2023-03-23T11:01:57;20.20;93.00
37310;DHT22;23195;47.744;7.358;2023-03-23T11:04:25;20.30;93.30
37310;DHT22;23195;47.744;7.358;2023-03-23T11:07:02;20.30;92.80
37310;DHT22;23195;47.744;7.358;2023-03-23T11:09:40;20.30;92.90
37310;DHT22;23195;47.744;7.358;2023-03-23T11:12:18;20.40;92.80
37310;DHT22;23195;47.744;7.358;2023-03-23T11:14:44;20.40;92.80
37310;DHT22;23195;47.744;7.358;2023-03-23T11:17:25;20.50;92.90
37310;DHT22;23195;47.744;7.358;2023-03-23T11:19:52;20.70;92.40
37310;DHT22;23195;47.744;7.358;2023-03-23T11:22:25;20.90;92.20
37310;DHT22;23195;47.744;7.358;2023-03-23T11:25:12;20.90;91.90
37310;DHT22;23195;47.744;7.358;2023-03-23T11:27:39;20.60;91.80
37310;DHT22;23195;47.744;7.358;2023-03-23T11:30:14;20.60;90.90
37310;DHT22;23195;47.744;7.358;2023-03-23T11:32:47;20.70;91.50
37310;DHT22;23195;47.744;7.358;2023-03-23T11:35:18;20.50;90.90
37310;DHT22;23195;47.744;7.358;2023-03-23T11:37:54;20.40;91.50
37310;DHT22;23195;47.744;7.358;2023-03-23T11:40:23;20.60;91.30
37310;DHT22;23195;47.744;7.358;2023-03-23T11:43:14;20.60;91.10
37310;DHT22;23195;47.744;7.358;2023-03-23T11:51:04;20.50;92.10
37310;DHT22;23195;47.744;7.358;2023-03-23T11:56:25;20.70;91.70
37310;DHT22;23195;47.744;7.358;2023-03-23T11:58:57;20.80;91.40
37310;DHT22;23195;47.744;7.358;2023-03-23T12:08:00;20.40;91.00
37310;DHT22;23195;47.744;7.358;2023-03-23T12:19:53;20.40;91.00
37310;DHT22;23195;47.744;7.358;2023-03-23T12:23:14;20.40;90.90
37310;DHT22;23195;47.744;7.358;2023-03-23T12:25:59;20.20;91.10
37310;DHT22;23195;47.744;7.358;2023-03-23T12:28:44;19.90;91.10
37310;DHT22;23195;47.744;7.358;2023-03-23T12:34:02;19.70;91.20
37310;DHT22;23195;47.744;7.358;2023-03-23T12:47:42;19.50;90.40
37310;DHT22;23195;47.744;7.358;2023-03-23T12:50:18;19.40;90.10
37310;DHT22;23195;47.744;7.358;2023-03-23T12:53:06;19.30;90.20
37310;DHT22;23195;47.744;7.358;2023-03-23T12:55:46;19.30;90.10
37310;DHT22;23195;47.744;7.358;2023-03-23T12:58:24;19.20;90.30
37310;DHT22;23195;47.744;7.358;2023-03-23T13:00:56;19.20;90.40
37310;DHT22;23195;47.744;7.358;2023-03-23T13:03:31;19.10;90.40
37310;DHT22;23195;47.744;7.358;2023-03-23T13:08:49;19.30;90.20
37310;DHT22;23195;47.744;7.358;2023-03-23T13:11:34;19.30;90.30
37310;DHT22;23195;47.744;7.358;2023-03-23T13:14:21;19.30;90.10
37310;DHT22;23195;47.744;7.358;2023-03-23T13:22:47;19.40;89.30
37310;DHT22;23195;47.744;7.358;2023-03-23T13:25:50;19.50;90.10
37310;DHT22;23195;47.744;7.358;2023-03-23T13:28:26;19.60;90.10
37310;DHT22;23195;47.744;7.358;2023-03-23T13:31:11;19.60;89.90
37310;DHT22;23195;47.744;7.358;2023-03-23T13:33:37;19.50;90.00
37310;DHT22;23195;47.744;7.358;2023-03-23T13:36:10;19.40;89.90
37310;DHT22;23195;47.744;7.358;2023-03-23T13:38:37;19.30;90.20
37310;DHT22;23195;47.744;7.358;2023-03-23T13:41:12;19.10;90.50
37310;DHT22;23195;47.744;7.358;2023-03-23T13:43:40;19.10;90.20
37310;DHT22;23195;47.744;7.358;2023-03-23T13:48:46;19.20;90.80
37310;DHT22;23195;47.744;7.358;2023-03-23T13:51:33;19.30;91.00
37310;DHT22;23195;47.744;7.358;2023-03-23T13:54:24;19.10;90.80
37310;DHT22;23195;47.744;7.358;2023-03-23T13:56:57;19.10;90.60
37310;DHT22;23195;47.744;7.358;2023-03-23T14:01:56;18.90;91.30
37310;DHT22;23195;47.744;7.358;2023-03-23T14:04:30;18.90;91.20
37310;DHT22;23195;47.744;7.358;2023-03-23T14:07:12;18.90;91.20
37310;DHT22;23195;47.744;7.358;2023-03-23T14:09:41;19.00;91.20
37310;DHT22;23195;47.744;7.358;2023-03-23T14:12:34;19.00;91.30
37310;DHT22;23195;47.744;7.358;2023-03-23T14:15:02;19.10;91.40
37310;DHT22;23195;47.744;7.358;2023-03-23T14:17:33;19.00;91.50
37310;DHT22;23195;47.744;7.358;2023-03-23T14:20:01;19.10;92.00
37310;DHT22;23195;47.744;7.358;2023-03-23T14:22:34;19.00;91.60
37310;DHT22;23195;47.744;7.358;2023-03-23T14:25:17;19.00;91.60
37310;DHT22;23195;47.744;7.358;2023-03-23T14:27:44;18.90;91.60
37310;DHT22;23195;47.744;7.358;2023-03-23T14:30:20;18.90;91.70
37310;DHT22;23195;47.744;7.358;2023-03-23T14:32:46;19.00;91.70
37310;DHT22;23195;47.744;7.358;2023-03-23T14:35:28;18.90;91.50
37310;DHT22;23195;47.744;7.358;2023-03-23T14:37:55;19.00;91.60
37310;DHT22;23195;47.744;7.358;2023-03-23T14:40:22;19.00;91.80
37310;DHT22;23195;47.744;7.358;2023-03-23T14:42:51;19.00;91.40
37310;DHT22;23195;47.744;7.358;2023-03-23T14:45:20;19.00;91.70
37310;DHT22;23195;47.744;7.358;2023-03-23T14:48:00;19.00;91.60
37310;DHT22;23195;47.744;7.358;2023-03-23T14:50:42;19.00;91.40
37310;DHT22;23195;47.744;7.358;2023-03-23T14:53:13;19.00;91.40
37310;DHT22;23195;47.744;7.358;2023-03-23T14:55:43;18.90;91.20
37310;DHT22;23195;47.744;7.358;2023-03-23T14:58:14;19.00;91.20
37310;DHT22;23195;47.744;7.358;2023-03-23T15:01:05;19.00;91.50
37310;DHT22;23195;47.744;7.358;2023-03-23T15:03:59;19.00;91.60
37310;DHT22;23195;47.744;7.358;2023-03-23T15:06:29;19.00;91.60
37310;DHT22;23195;47.744;7.358;2023-03-23T15:09:02;19.00;91.60
37310;DHT22;23195;47.744;7.358;2023-03-23T15:11:31;19.00;91.60
37310;DHT22;23195;47.744;7.358;2023-03-23T15:14:00;19.10;91.40
37310;DHT22;23195;47.744;7.358;2023-03-23T15:16:33;19.00;91.50
37310;DHT22;23195;47.744;7.358;2023-03-23T15:19:00;18.90;91.50
37310;DHT22;23195;47.744;7.358;2023-03-23T15:21:35;19.00;91.70
37310;DHT22;23195;47.744;7.358;2023-03-23T15:24:32;18.90;91.60
37310;DHT22;23195;47.744;7.358;2023-03-23T15:27:12;18.40;91.60
37310;DHT22;23195;47.744;7.358;2023-03-23T15:29:59;18.90;92.00
37310;DHT22;23195;47.744;7.358;2023-03-23T15:32:31;18.90;92.10
37310;DHT22;23195;47.744;7.358;2023-03-23T15:35:14;18.90;92.00
37310;DHT22;23195;47.744;7.358;2023-03-23T15:37:47;18.70;92.30
37310;DHT22;23195;47.744;7.358;2023-03-23T15:40:22;18.70;92.60
37310;DHT22;23195;47.744;7.358;2023-03-23T15:42:49;18.70;92.60
37310;DHT22;23195;47.744;7.358;2023-03-23T15:45:25;18.70;92.80
37310;DHT22;23195;47.744;7.358;2023-03-23T15:47:52;18.60;92.60
37310;DHT22;23195;47.744;7.358;2023-03-23T15:50:33;18.60;92.90
37310;DHT22;23195;47.744;7.358;2023-03-23T15:53:19;18.60;92.80
37310;DHT22;23195;47.744;7.358;2023-03-23T15:55:46;18.50;93.00
37310;DHT22;23195;47.744;7.358;2023-03-23T15:58:15;18.40;92.90
37310;DHT22;23195;47.744;7.358;2023-03-23T16:00:42;18.50;93.30
37310;DHT22;23195;47.744;7.358;2023-03-23T16:03:14;18.30;93.20
37310;DHT22;23195;47.744;7.358;2023-03-23T16:05:44;18.30;93.30
37310;DHT22;23195;47.744;7.358;2023-03-23T16:08:10;18.20;93.40
37310;DHT22;23195;47.744;7.358;2023-03-23T16:10:39;18.20;93.60
37310;DHT22;23195;47.744;7.358;2023-03-23T16:13:05;18.10;93.30
37310;DHT22;23195;47.744;7.358;2023-03-23T16:15:33;18.10;93.30
37310;DHT22;23195;47.744;7.358;2023-03-23T16:17:59;17.90;93.80
37310;DHT22;23195;47.744;7.358;2023-03-23T16:20:27;17.90;93.60
37310;DHT22;23195;47.744;7.358;2023-03-23T16:22:53;17.80;93.70
37310;DHT22;23195;47.744;7.358;2023-03-23T16:25:19;17.70;93.90
37310;DHT22;23195;47.744;7.358;2023-03-23T16:27:45;17.70;94.20
37310;DHT22;23195;47.744;7.358;2023-03-23T16:30:25;17.70;94.40
37310;DHT22;23195;47.744;7.358;2023-03-23T16:32:52;17.60;94.50
37310;DHT22;23195;47.744;7.358;2023-03-23T16:35:18;17.60;94.60
37310;DHT22;23195;47.744;7.358;2023-03-23T16:37:47;17.60;94.70
37310;DHT22;23195;47.744;7.358;2023-03-23T16:40:14;17.60;94.90
37310;DHT22;23195;47.744;7.358;2023-03-23T16:42:43;17.50;95.10
37310;DHT22;23195;47.744;7.358;2023-03-23T16:45:09;17.50;95.00
37310;DHT22;23195;47.744;7.358;2023-03-23T16:47:36;17.30;95.00
37310;DHT22;23195;47.744;7.358;2023-03-23T16:50:03;17.30;95.30
37310;DHT22;23195;47.744;7.358;2023-03-23T16:52:31;17.30;95.30
37310;DHT22;23195;47.744;7.358;2023-03-23T16:54:57;17.30;95.40
37310;DHT22;23195;47.744;7.358;2023-03-23T16:57:23;17.30;95.50
37310;DHT22;23195;47.744;7.358;2023-03-23T16:59:49;17.10;95.40
37310;DHT22;23195;47.744;7.358;2023-03-23T17:02:16;17.10;95.60
37310;DHT22;23195;47.744;7.358;2023-03-23T17:04:43;17.10;95.80
37310;DHT22;23195;47.744;7.358;2023-03-23T17:07:10;17.10;96.00
37310;DHT22;23195;47.744;7.358;2023-03-23T17:09:39;17.00;95.90
37310;DHT22;23195;47.744;7.358;2023-03-23T17:12:09;17.00;96.10
37310;DHT22;23195;47.744;7.358;2023-03-23T17:14:37;16.90;96.20
37310;DHT22;23195;47.744;7.358;2023-03-23T17:17:03;16.80;96.80
37310;DHT22;23195;47.744;7.358;2023-03-23T17:19:29;16.80;97.20
37310;DHT22;23195;47.744;7.358;2023-03-23T17:21:54;16.80;97.80
37310;DHT22;23195;47.744;7.358;2023-03-23T17:24:21;16.70;98.20
37310;DHT22;23195;47.744;7.358;2023-03-23T17:26:46;16.60;98.40